sensor_id;sensor_type;location;lat;lon;timestamp;P1;durP1;ratioP1;P2;durP2;ratioP2
76723;SDS011;65650;53.126;17.950;2022-12-11T00:01:42;15.20;;;5.90;;
76723;SDS011;65650;53.126;17.950;2022-12-11T00:04:08;11.30;;;4.80;;
76723;SDS011;65650;53.126;17.950;2022-12-11T00:06:35;11.30;;;5.30;;
76723;SDS011;65650;53.126;17.950;2022-12-11T00:09:01;12.40;;;5.20;;
76723;SDS011;65650;53.126;17.950;2022-12-11T00:11:27;14.20;;;6.00;;
76723;SDS011;65650;53.126;17.950;2022-12-11T00:13:54;13.50;;;5.50;;
76723;SDS011;65650;53.126;17.950;2022-12-11T00:16:20;16.50;;;6.20;;
76723;SDS011;65650;53.126;17.950;2022-12-11T00:18:47;14.40;;;5.60;;
76723;SDS011;65650;53.126;17.950;2022-12-11T00:21:14;11.60;;;4.80;;
76723;SDS011;65650;53.126;17.950;2022-12-11T00:23:40;11.00;;;4.70;;
76723;SDS011;65650;53.126;17.950;2022-12-11T00:26:08;10.50;;;4.70;;
76723;SDS011;65650;53.126;17.950;2022-12-11T00:28:35;11.20;;;4.20;;
76723;SDS011;65650;53.126;17.950;2022-12-11T00:31:02;12.70;;;5.30;;
76723;SDS011;65650;53.126;17.950;2022-12-11T00:33:29;11.20;;;5.10;;
76723;SDS011;65650;53.126;17.950;2022-12-11T00:35:55;12.00;;;5.20;;
76723;SDS011;65650;53.126;17.950;2022-12-11T00:38:22;9.50;;;4.00;;
76723;SDS011;65650;53.126;17.950;2022-12-11T00:40:49;12.50;;;4.40;;
76723;SDS011;65650;53.126;17.950;2022-12-11T00:43:16;9.50;;;4.40;;
76723;SDS011;65650;53.126;17.950;2022-12-11T00:45:44;12.60;;;5.20;;
76723;SDS011;65650;53.126;17.950;2022-12-11T00:48:11;10.00;;;3.90;;
76723;SDS011;65650;53.126;17.950;2022-12-11T00:50:38;10.70;;;4.30;;
76723;SDS011;65650;53.126;17.950;2022-12-11T00:53:05;10.90;;;4.30;;
76723;SDS011;65650;53.126;17.950;2022-12-11T00:55:37;10.20;;;4.30;;
76723;SDS011;65650;53.126;17.950;2022-12-11T00:58:04;7.90;;;2.90;;
76723;SDS011;65650;53.126;17.950;2022-12-11T01:00:31;11.20;;;3.50;;
76723;SDS011;65650;53.126;17.950;2022-12-11T01:02:58;9.30;;;3.90;;
76723;SDS011;65650;53.126;17.950;2022-12-11T01:05:24;10.00;;;4.00;;
76723;SDS011;65650;53.126;17.950;2022-12-11T01:07:51;9.60;;;4.50;;
76723;SDS011;65650;53.126;17.950;2022-12-11T01:10:17;8.70;;;3.80;;
76723;SDS011;65650;53.126;17.950;2022-12-11T01:15:24;8.50;;;3.80;;
76723;SDS011;65650;53.126;17.950;2022-12-11T01:17:51;10.70;;;3.60;;
76723;SDS011;65650;53.126;17.950;2022-12-11T01:20:18;9.80;;;3.80;;
76723;SDS011;65650;53.126;17.950;2022-12-11T01:22:44;8.90;;;3.20;;
76723;SDS011;65650;53.126;17.950;2022-12-11T01:25:11;7.90;;;3.50;;
76723;SDS011;65650;53.126;17.950;2022-12-11T01:27:38;9.40;;;3.40;;
76723;SDS011;65650;53.126;17.950;2022-12-11T01:30:05;10.60;;;4.00;;
76723;SDS011;65650;53.126;17.950;2022-12-11T01:32:33;10.20;;;4.70;;
76723;SDS011;65650;53.126;17.950;2022-12-11T01:35:04;9.80;;;4.30;;
76723;SDS011;65650;53.126;17.950;2022-12-11T01:37:30;12.70;;;4.60;;
76723;SDS011;65650;53.126;17.950;2022-12-11T01:39:58;11.80;;;4.80;;
76723;SDS011;65650;53.126;17.950;2022-12-11T01:42:25;10.70;;;4.70;;
76723;SDS011;65650;53.126;17.950;2022-12-11T01:47:38;13.00;;;4.90;;
76723;SDS011;65650;53.126;17.950;2022-12-11T01:50:04;13.30;;;5.50;;
76723;SDS011;65650;53.126;17.950;2022-12-11T01:52:31;14.00;;;6.10;;
76723;SDS011;65650;53.126;17.950;2022-12-11T01:54:58;13.10;;;5.00;;
76723;SDS011;65650;53.126;17.950;2022-12-11T01:57:24;17.20;;;6.30;;
76723;SDS011;65650;53.126;17.950;2022-12-11T01:59:51;13.90;;;5.90;;
76723;SDS011;65650;53.126;17.950;2022-12-11T02:02:19;13.70;;;5.90;;
76723;SDS011;65650;53.126;17.950;2022-12-11T02:04:46;11.70;;;4.60;;
76723;SDS011;65650;53.126;17.950;2022-12-11T02:07:14;10.40;;;5.10;;
76723;SDS011;65650;53.126;17.950;2022-12-11T02:09:41;11.10;;;5.10;;
76723;SDS011;65650;53.126;17.950;2022-12-11T02:30:35;12.10;;;4.40;;
76723;SDS011;65650;53.126;17.950;2022-12-11T02:33:02;9.60;;;3.80;;
76723;SDS011;65650;53.126;17.950;2022-12-11T02:35:33;11.70;;;4.90;;
76723;SDS011;65650;53.126;17.950;2022-12-11T02:38:02;11.10;;;4.50;;
76723;SDS011;65650;53.126;17.950;2022-12-11T02:40:29;11.80;;;4.80;;
76723;SDS011;65650;53.126;17.950;2022-12-11T02:42:57;14.40;;;5.30;;
76723;SDS011;65650;53.126;17.950;2022-12-11T02:45:25;14.30;;;5.30;;
76723;SDS011;65650;53.126;17.950;2022-12-11T02:47:53;12.60;;;5.30;;
76723;SDS011;65650;53.126;17.950;2022-12-11T02:50:21;15.70;;;6.50;;
76723;SDS011;65650;53.126;17.950;2022-12-11T02:52:49;14.80;;;5.90;;
76723;SDS011;65650;53.126;17.950;2022-12-11T02:55:17;12.60;;;5.30;;
76723;SDS011;65650;53.126;17.950;2022-12-11T03:00:10;14.50;;;7.10;;
76723;SDS011;65650;53.126;17.950;2022-12-11T03:02:37;16.80;;;7.30;;
76723;SDS011;65650;53.126;17.950;2022-12-11T03:05:05;15.50;;;7.00;;
76723;SDS011;65650;53.126;17.950;2022-12-11T03:07:33;13.60;;;6.10;;
76723;SDS011;65650;53.126;17.950;2022-12-11T03:10:00;16.00;;;6.10;;
76723;SDS011;65650;53.126;17.950;2022-12-11T03:12:28;14.00;;;5.70;;
76723;SDS011;65650;53.126;17.950;2022-12-11T03:14:56;14.90;;;6.30;;
76723;SDS011;65650;53.126;17.950;2022-12-11T03:17:26;13.60;;;5.40;;
76723;SDS011;65650;53.126;17.950;2022-12-11T03:19:58;12.80;;;5.50;;
76723;SDS011;65650;53.126;17.950;2022-12-11T03:22:46;14.60;;;5.50;;
76723;SDS011;65650;53.126;17.950;2022-12-11T03:30:19;13.80;;;5.90;;
76723;SDS011;65650;53.126;17.950;2022-12-11T03:32:48;16.20;;;6.50;;
76723;SDS011;65650;53.126;17.950;2022-12-11T03:37:46;17.80;;;6.90;;
76723;SDS011;65650;53.126;17.950;2022-12-11T03:40:14;17.40;;;7.90;;
76723;SDS011;65650;53.126;17.950;2022-12-11T03:42:42;19.00;;;7.90;;
76723;SDS011;65650;53.126;17.950;2022-12-11T03:45:10;17.00;;;7.30;;
76723;SDS011;65650;53.126;17.950;2022-12-11T03:47:37;17.30;;;7.60;;
76723;SDS011;65650;53.126;17.950;2022-12-11T03:50:05;17.70;;;8.20;;
76723;SDS011;65650;53.126;17.950;2022-12-11T03:52:32;14.00;;;6.20;;
76723;SDS011;65650;53.126;17.950;2022-12-11T03:55:03;16.40;;;7.10;;
76723;SDS011;65650;53.126;17.950;2022-12-11T03:57:31;19.00;;;8.30;;
76723;SDS011;65650;53.126;17.950;2022-12-11T03:59:58;21.30;;;8.20;;
76723;SDS011;65650;53.126;17.950;2022-12-11T04:02:25;20.90;;;9.10;;
76723;SDS011;65650;53.126;17.950;2022-12-11T04:04:52;16.20;;;7.50;;
76723;SDS011;65650;53.126;17.950;2022-12-11T04:07:18;16.40;;;7.30;;
76723;SDS011;65650;53.126;17.950;2022-12-11T04:09:45;15.00;;;5.80;;
76723;SDS011;65650;53.126;17.950;2022-12-11T04:12:11;11.50;;;4.90;;
76723;SDS011;65650;53.126;17.950;2022-12-11T04:14:38;12.50;;;5.30;;
76723;SDS011;65650;53.126;17.950;2022-12-11T04:17:23;11.20;;;4.00;;
76723;SDS011;65650;53.126;17.950;2022-12-11T04:20:09;16.60;;;7.10;;
76723;SDS011;65650;53.126;17.950;2022-12-11T04:22:54;15.90;;;6.40;;
76723;SDS011;65650;53.126;17.950;2022-12-11T04:25:40;11.90;;;5.70;;
76723;SDS011;65650;53.126;17.950;2022-12-11T04:28:06;11.80;;;5.40;;
76723;SDS011;65650;53.126;17.950;2022-12-11T04:30:33;16.20;;;6.50;;
76723;SDS011;65650;53.126;17.950;2022-12-11T04:32:59;13.80;;;5.30;;
76723;SDS011;65650;53.126;17.950;2022-12-11T04:35:26;12.40;;;4.70;;
76723;SDS011;65650;53.126;17.950;2022-12-11T04:37:52;15.70;;;5.70;;
76723;SDS011;65650;53.126;17.950;2022-12-11T04:40:19;11.40;;;5.00;;
76723;SDS011;65650;53.126;17.950;2022-12-11T04:42:46;10.40;;;4.40;;
76723;SDS011;65650;53.126;17.950;2022-12-11T04:45:14;12.20;;;5.20;;
76723;SDS011;65650;53.126;17.950;2022-12-11T04:47:41;13.90;;;5.60;;
76723;SDS011;65650;53.126;17.950;2022-12-11T04:50:08;12.60;;;5.20;;
76723;SDS011;65650;53.126;17.950;2022-12-11T04:52:35;13.50;;;5.60;;
76723;SDS011;65650;53.126;17.950;2022-12-11T04:55:03;10.90;;;4.80;;
76723;SDS011;65650;53.126;17.950;2022-12-11T04:57:29;11.60;;;4.50;;
76723;SDS011;65650;53.126;17.950;2022-12-11T04:59:56;12.60;;;5.20;;
76723;SDS011;65650;53.126;17.950;2022-12-11T05:02:22;11.50;;;5.00;;
76723;SDS011;65650;53.126;17.950;2022-12-11T05:04:49;13.40;;;5.00;;
76723;SDS011;65650;53.126;17.950;2022-12-11T05:07:15;13.10;;;5.10;;
76723;SDS011;65650;53.126;17.950;2022-12-11T05:09:42;14.10;;;5.70;;
76723;SDS011;65650;53.126;17.950;2022-12-11T05:12:09;12.70;;;4.70;;
76723;SDS011;65650;53.126;17.950;2022-12-11T05:14:35;12.40;;;5.30;;
76723;SDS011;65650;53.126;17.950;2022-12-11T05:17:02;15.50;;;6.00;;
76723;SDS011;65650;53.126;17.950;2022-12-11T05:19:28;13.00;;;5.30;;
76723;SDS011;65650;53.126;17.950;2022-12-11T05:21:55;11.30;;;4.60;;
76723;SDS011;65650;53.126;17.950;2022-12-11T05:24:22;12.40;;;5.50;;
76723;SDS011;65650;53.126;17.950;2022-12-11T05:26:49;13.20;;;5.30;;
76723;SDS011;65650;53.126;17.950;2022-12-11T05:29:15;14.30;;;6.40;;
76723;SDS011;65650;53.126;17.950;2022-12-11T05:31:42;16.40;;;5.20;;
76723;SDS011;65650;53.126;17.950;2022-12-11T05:34:09;14.20;;;5.70;;
76723;SDS011;65650;53.126;17.950;2022-12-11T05:36:35;14.10;;;5.30;;
76723;SDS011;65650;53.126;17.950;2022-12-11T05:39:02;13.30;;;5.70;;
76723;SDS011;65650;53.126;17.950;2022-12-11T05:41:31;14.90;;;6.30;;
76723;SDS011;65650;53.126;17.950;2022-12-11T05:43:58;13.70;;;5.00;;
76723;SDS011;65650;53.126;17.950;2022-12-11T05:46:25;11.70;;;4.70;;
76723;SDS011;65650;53.126;17.950;2022-12-11T05:48:56;15.60;;;5.70;;
76723;SDS011;65650;53.126;17.950;2022-12-11T05:51:23;11.10;;;5.00;;
76723;SDS011;65650;53.126;17.950;2022-12-11T05:53:50;11.20;;;4.70;;
76723;SDS011;65650;53.126;17.950;2022-12-11T05:56:24;15.00;;;5.50;;
76723;SDS011;65650;53.126;17.950;2022-12-11T05:58:51;13.10;;;5.80;;
76723;SDS011;65650;53.126;17.950;2022-12-11T06:01:20;12.30;;;5.10;;
76723;SDS011;65650;53.126;17.950;2022-12-11T06:03:47;15.50;;;5.80;;
76723;SDS011;65650;53.126;17.950;2022-12-11T06:06:14;15.50;;;6.00;;
76723;SDS011;65650;53.126;17.950;2022-12-11T06:08:40;14.40;;;5.50;;
76723;SDS011;65650;53.126;17.950;2022-12-11T06:11:07;13.40;;;5.40;;
76723;SDS011;65650;53.126;17.950;2022-12-11T06:13:34;16.20;;;6.30;;
76723;SDS011;65650;53.126;17.950;2022-12-11T06:16:04;13.30;;;5.70;;
76723;SDS011;65650;53.126;17.950;2022-12-11T06:18:31;12.40;;;5.60;;
76723;SDS011;65650;53.126;17.950;2022-12-11T06:21:00;10.50;;;4.80;;
76723;SDS011;65650;53.126;17.950;2022-12-11T06:23:27;10.10;;;5.20;;
76723;SDS011;65650;53.126;17.950;2022-12-11T06:25:53;11.50;;;4.70;;
76723;SDS011;65650;53.126;17.950;2022-12-11T06:28:19;11.20;;;4.50;;
76723;SDS011;65650;53.126;17.950;2022-12-11T06:30:46;14.70;;;6.00;;
76723;SDS011;65650;53.126;17.950;2022-12-11T06:33:12;16.10;;;5.60;;
76723;SDS011;65650;53.126;17.950;2022-12-11T06:35:39;13.80;;;5.30;;
76723;SDS011;65650;53.126;17.950;2022-12-11T06:38:05;13.20;;;5.50;;
76723;SDS011;65650;53.126;17.950;2022-12-11T06:40:33;11.20;;;4.80;;
76723;SDS011;65650;53.126;17.950;2022-12-11T06:43:02;10.80;;;5.30;;
76723;SDS011;65650;53.126;17.950;2022-12-11T06:45:28;12.50;;;5.00;;
76723;SDS011;65650;53.126;17.950;2022-12-11T06:47:55;12.80;;;5.30;;
76723;SDS011;65650;53.126;17.950;2022-12-11T06:50:21;12.70;;;5.60;;
76723;SDS011;65650;53.126;17.950;2022-12-11T06:52:48;12.80;;;5.10;;
76723;SDS011;65650;53.126;17.950;2022-12-11T06:55:14;13.10;;;5.80;;
76723;SDS011;65650;53.126;17.950;2022-12-11T06:57:41;16.70;;;6.10;;
76723;SDS011;65650;53.126;17.950;2022-12-11T07:00:07;13.40;;;5.00;;
76723;SDS011;65650;53.126;17.950;2022-12-11T07:02:34;9.20;;;4.30;;
76723;SDS011;65650;53.126;17.950;2022-12-11T07:05:00;11.40;;;5.10;;
76723;SDS011;65650;53.126;17.950;2022-12-11T07:07:27;16.50;;;6.60;;
76723;SDS011;65650;53.126;17.950;2022-12-11T07:09:54;10.60;;;4.60;;
76723;SDS011;65650;53.126;17.950;2022-12-11T07:12:20;10.90;;;5.40;;
76723;SDS011;65650;53.126;17.950;2022-12-11T07:14:47;9.30;;;4.50;;
76723;SDS011;65650;53.126;17.950;2022-12-11T07:17:13;12.50;;;5.00;;
76723;SDS011;65650;53.126;17.950;2022-12-11T07:19:39;13.70;;;5.80;;
76723;SDS011;65650;53.126;17.950;2022-12-11T07:22:06;15.30;;;6.20;;
76723;SDS011;65650;53.126;17.950;2022-12-11T07:24:32;15.20;;;6.10;;
76723;SDS011;65650;53.126;17.950;2022-12-11T07:26:59;24.30;;;9.30;;
76723;SDS011;65650;53.126;17.950;2022-12-11T07:29:25;23.60;;;9.60;;
76723;SDS011;65650;53.126;17.950;2022-12-11T07:31:52;15.20;;;6.30;;
76723;SDS011;65650;53.126;17.950;2022-12-11T07:34:19;16.40;;;6.20;;
76723;SDS011;65650;53.126;17.950;2022-12-11T07:36:45;14.90;;;6.10;;
76723;SDS011;65650;53.126;17.950;2022-12-11T07:39:12;14.70;;;6.70;;
76723;SDS011;65650;53.126;17.950;2022-12-11T07:41:38;19.90;;;7.80;;
76723;SDS011;65650;53.126;17.950;2022-12-11T07:44:10;20.30;;;8.90;;
76723;SDS011;65650;53.126;17.950;2022-12-11T07:46:37;19.60;;;9.20;;
76723;SDS011;65650;53.126;17.950;2022-12-11T07:49:04;18.20;;;7.60;;
76723;SDS011;65650;53.126;17.950;2022-12-11T07:51:32;19.10;;;7.20;;
76723;SDS011;65650;53.126;17.950;2022-12-11T07:54:00;17.80;;;7.60;;
76723;SDS011;65650;53.126;17.950;2022-12-11T07:56:27;12.80;;;6.00;;
76723;SDS011;65650;53.126;17.950;2022-12-11T07:58:53;14.60;;;6.10;;
76723;SDS011;65650;53.126;17.950;2022-12-11T08:01:21;19.60;;;8.30;;
76723;SDS011;65650;53.126;17.950;2022-12-11T08:03:48;17.90;;;7.60;;
76723;SDS011;65650;53.126;17.950;2022-12-11T08:06:16;10.90;;;5.20;;
76723;SDS011;65650;53.126;17.950;2022-12-11T08:08:43;10.60;;;5.20;;
76723;SDS011;65650;53.126;17.950;2022-12-11T08:11:10;11.70;;;5.80;;
76723;SDS011;65650;53.126;17.950;2022-12-11T08:13:38;12.70;;;6.00;;
76723;SDS011;65650;53.126;17.950;2022-12-11T08:16:05;15.10;;;6.30;;
76723;SDS011;65650;53.126;17.950;2022-12-11T08:18:32;14.10;;;5.90;;
76723;SDS011;65650;53.126;17.950;2022-12-11T08:21:03;11.60;;;5.30;;
76723;SDS011;65650;53.126;17.950;2022-12-11T08:23:30;12.00;;;5.40;;
76723;SDS011;65650;53.126;17.950;2022-12-11T08:25:56;11.30;;;5.30;;
76723;SDS011;65650;53.126;17.950;2022-12-11T08:28:23;15.70;;;6.60;;
76723;SDS011;65650;53.126;17.950;2022-12-11T08:30:49;13.40;;;5.90;;
76723;SDS011;65650;53.126;17.950;2022-12-11T08:33:15;11.40;;;4.50;;
76723;SDS011;65650;53.126;17.950;2022-12-11T08:35:42;14.80;;;6.60;;
76723;SDS011;65650;53.126;17.950;2022-12-11T08:38:10;12.10;;;5.00;;
76723;SDS011;65650;53.126;17.950;2022-12-11T08:40:36;9.60;;;4.00;;
76723;SDS011;65650;53.126;17.950;2022-12-11T08:43:03;13.10;;;5.40;;
76723;SDS011;65650;53.126;17.950;2022-12-11T08:45:30;16.40;;;7.10;;
76723;SDS011;65650;53.126;17.950;2022-12-11T08:47:57;15.20;;;6.60;;
76723;SDS011;65650;53.126;17.950;2022-12-11T08:50:23;14.10;;;6.10;;
76723;SDS011;65650;53.126;17.950;2022-12-11T08:52:50;20.40;;;7.90;;
76723;SDS011;65650;53.126;17.950;2022-12-11T08:55:19;17.00;;;6.60;;
76723;SDS011;65650;53.126;17.950;2022-12-11T08:57:45;21.50;;;8.20;;
76723;SDS011;65650;53.126;17.950;2022-12-11T09:00:12;19.10;;;7.40;;
76723;SDS011;65650;53.126;17.950;2022-12-11T09:02:39;24.20;;;9.50;;
76723;SDS011;65650;53.126;17.950;2022-12-11T09:05:05;30.40;;;12.20;;
76723;SDS011;65650;53.126;17.950;2022-12-11T09:07:33;24.60;;;9.30;;
76723;SDS011;65650;53.126;17.950;2022-12-11T09:09:59;20.20;;;7.80;;
76723;SDS011;65650;53.126;17.950;2022-12-11T09:12:26;26.10;;;8.80;;
76723;SDS011;65650;53.126;17.950;2022-12-11T09:14:54;19.70;;;7.20;;
76723;SDS011;65650;53.126;17.950;2022-12-11T09:17:20;15.40;;;6.00;;
76723;SDS011;65650;53.126;17.950;2022-12-11T09:19:47;13.10;;;5.80;;
76723;SDS011;65650;53.126;17.950;2022-12-11T09:22:13;13.50;;;5.90;;
76723;SDS011;65650;53.126;17.950;2022-12-11T09:24:40;13.50;;;5.70;;
76723;SDS011;65650;53.126;17.950;2022-12-11T09:27:06;13.90;;;5.80;;
76723;SDS011;65650;53.126;17.950;2022-12-11T09:29:33;13.70;;;5.50;;
76723;SDS011;65650;53.126;17.950;2022-12-11T09:32:00;16.20;;;6.00;;
76723;SDS011;65650;53.126;17.950;2022-12-11T09:34:27;10.80;;;4.80;;
76723;SDS011;65650;53.126;17.950;2022-12-11T09:36:53;11.90;;;4.70;;
76723;SDS011;65650;53.126;17.950;2022-12-11T09:39:20;16.90;;;5.90;;
76723;SDS011;65650;53.126;17.950;2022-12-11T09:44:46;11.90;;;4.60;;
76723;SDS011;65650;53.126;17.950;2022-12-11T09:52:33;9.80;;;3.90;;
76723;SDS011;65650;53.126;17.950;2022-12-11T09:55:03;9.70;;;4.00;;
76723;SDS011;65650;53.126;17.950;2022-12-11T10:00:02;9.30;;;3.80;;
76723;SDS011;65650;53.126;17.950;2022-12-11T10:05:11;9.80;;;3.90;;
76723;SDS011;65650;53.126;17.950;2022-12-11T10:13:00;10.10;;;4.20;;
76723;SDS011;65650;53.126;17.950;2022-12-11T10:18:15;9.90;;;4.40;;
76723;SDS011;65650;53.126;17.950;2022-12-11T10:20:43;10.40;;;3.90;;
76723;SDS011;65650;53.126;17.950;2022-12-11T10:28:33;12.90;;;5.20;;
76723;SDS011;65650;53.126;17.950;2022-12-11T10:31:12;11.20;;;4.90;;
76723;SDS011;65650;53.126;17.950;2022-12-11T10:33:48;12.90;;;4.80;;
76723;SDS011;65650;53.126;17.950;2022-12-11T10:36:22;11.10;;;4.50;;
76723;SDS011;65650;53.126;17.950;2022-12-11T10:38:51;10.70;;;4.20;;
76723;SDS011;65650;53.126;17.950;2022-12-11T10:41:19;11.10;;;4.50;;
76723;SDS011;65650;53.126;17.950;2022-12-11T10:43:47;12.90;;;4.90;;
76723;SDS011;65650;53.126;17.950;2022-12-11T10:48:51;12.10;;;4.60;;
76723;SDS011;65650;53.126;17.950;2022-12-11T10:51:22;10.00;;;3.70;;
76723;SDS011;65650;53.126;17.950;2022-12-11T10:53:52;10.80;;;4.50;;
76723;SDS011;65650;53.126;17.950;2022-12-11T10:56:26;12.90;;;5.50;;
76723;SDS011;65650;53.126;17.950;2022-12-11T10:58:54;14.20;;;5.80;;
76723;SDS011;65650;53.126;17.950;2022-12-11T11:01:22;12.70;;;5.00;;
76723;SDS011;65650;53.126;17.950;2022-12-11T11:03:53;16.10;;;6.00;;
76723;SDS011;65650;53.126;17.950;2022-12-11T11:06:20;13.70;;;5.00;;
76723;SDS011;65650;53.126;17.950;2022-12-11T11:08:52;14.10;;;5.50;;
76723;SDS011;65650;53.126;17.950;2022-12-11T11:11:20;22.70;;;8.30;;
76723;SDS011;65650;53.126;17.950;2022-12-11T11:13:47;15.00;;;5.90;;
76723;SDS011;65650;53.126;17.950;2022-12-11T11:16:15;15.10;;;5.90;;
76723;SDS011;65650;53.126;17.950;2022-12-11T11:18:48;17.10;;;6.80;;
76723;SDS011;65650;53.126;17.950;2022-12-11T11:21:20;21.10;;;8.40;;
76723;SDS011;65650;53.126;17.950;2022-12-11T11:23:47;11.90;;;5.00;;
76723;SDS011;65650;53.126;17.950;2022-12-11T11:26:14;16.80;;;6.50;;
76723;SDS011;65650;53.126;17.950;2022-12-11T11:28:51;13.30;;;4.80;;
76723;SDS011;65650;53.126;17.950;2022-12-11T11:31:18;13.80;;;5.10;;
76723;SDS011;65650;53.126;17.950;2022-12-11T11:33:56;11.60;;;4.60;;
76723;SDS011;65650;53.126;17.950;2022-12-11T11:36:27;12.80;;;4.90;;
76723;SDS011;65650;53.126;17.950;2022-12-11T11:41:48;9.60;;;4.70;;
76723;SDS011;65650;53.126;17.950;2022-12-11T11:44:18;15.80;;;5.40;;
76723;SDS011;65650;53.126;17.950;2022-12-11T11:46:52;14.30;;;5.80;;
76723;SDS011;65650;53.126;17.950;2022-12-11T11:49:35;21.70;;;7.60;;
76723;SDS011;65650;53.126;17.950;2022-12-11T11:54:34;14.60;;;5.70;;
76723;SDS011;65650;53.126;17.950;2022-12-11T11:57:50;16.20;;;6.10;;
76723;SDS011;65650;53.126;17.950;2022-12-11T11:59:51;17.80;;;6.50;;
76723;SDS011;65650;53.126;17.950;2022-12-11T12:02:19;15.60;;;6.00;;
76723;SDS011;65650;53.126;17.950;2022-12-11T12:04:46;15.20;;;6.60;;
76723;SDS011;65650;53.126;17.950;2022-12-11T12:10:03;15.30;;;6.30;;
76723;SDS011;65650;53.126;17.950;2022-12-11T12:15:14;13.80;;;5.30;;
76723;SDS011;65650;53.126;17.950;2022-12-11T12:17:54;19.00;;;6.60;;
76723;SDS011;65650;53.126;17.950;2022-12-11T12:20:36;16.90;;;7.90;;
76723;SDS011;65650;53.126;17.950;2022-12-11T12:30:53;24.50;;;8.90;;
76723;SDS011;65650;53.126;17.950;2022-12-11T12:36:11;17.70;;;7.00;;
76723;SDS011;65650;53.126;17.950;2022-12-11T12:46:40;17.60;;;6.70;;
76723;SDS011;65650;53.126;17.950;2022-12-11T12:49:13;13.80;;;5.80;;
76723;SDS011;65650;53.126;17.950;2022-12-11T12:51:40;16.50;;;7.00;;
76723;SDS011;65650;53.126;17.950;2022-12-11T12:54:10;10.60;;;4.80;;
76723;SDS011;65650;53.126;17.950;2022-12-11T12:56:37;10.10;;;4.50;;
76723;SDS011;65650;53.126;17.950;2022-12-11T12:59:17;14.10;;;5.50;;
76723;SDS011;65650;53.126;17.950;2022-12-11T13:01:45;12.60;;;4.80;;
76723;SDS011;65650;53.126;17.950;2022-12-11T13:04:27;14.20;;;5.60;;
76723;SDS011;65650;53.126;17.950;2022-12-11T13:06:55;17.20;;;6.60;;
76723;SDS011;65650;53.126;17.950;2022-12-11T13:09:25;12.10;;;5.40;;
76723;SDS011;65650;53.126;17.950;2022-12-11T13:11:54;14.30;;;6.10;;
76723;SDS011;65650;53.126;17.950;2022-12-11T13:14:25;17.00;;;7.40;;
76723;SDS011;65650;53.126;17.950;2022-12-11T13:19:50;14.90;;;5.30;;
76723;SDS011;65650;53.126;17.950;2022-12-11T13:22:22;15.50;;;6.40;;
76723;SDS011;65650;53.126;17.950;2022-12-11T13:24:59;15.90;;;5.80;;
76723;SDS011;65650;53.126;17.950;2022-12-11T13:27:39;15.50;;;5.50;;
76723;SDS011;65650;53.126;17.950;2022-12-11T13:30:19;14.60;;;5.90;;
76723;SDS011;65650;53.126;17.950;2022-12-11T13:32:52;18.80;;;6.40;;
76723;SDS011;65650;53.126;17.950;2022-12-11T13:35:22;16.40;;;6.80;;
76723;SDS011;65650;53.126;17.950;2022-12-11T13:37:49;17.70;;;7.10;;
76723;SDS011;65650;53.126;17.950;2022-12-11T13:40:21;19.10;;;7.90;;
76723;SDS011;65650;53.126;17.950;2022-12-11T13:42:50;14.50;;;5.90;;
76723;SDS011;65650;53.126;17.950;2022-12-11T13:45:26;14.50;;;5.90;;
76723;SDS011;65650;53.126;17.950;2022-12-11T13:47:57;22.00;;;8.60;;
76723;SDS011;65650;53.126;17.950;2022-12-11T13:50:25;14.30;;;6.00;;
76723;SDS011;65650;53.126;17.950;2022-12-11T13:52:54;18.60;;;6.70;;
76723;SDS011;65650;53.126;17.950;2022-12-11T13:55:39;15.30;;;6.80;;
76723;SDS011;65650;53.126;17.950;2022-12-11T13:58:14;20.00;;;7.00;;
76723;SDS011;65650;53.126;17.950;2022-12-11T14:00:41;17.30;;;7.30;;
76723;SDS011;65650;53.126;17.950;2022-12-11T14:03:09;15.70;;;6.70;;
76723;SDS011;65650;53.126;17.950;2022-12-11T14:05:35;15.20;;;6.10;;
76723;SDS011;65650;53.126;17.950;2022-12-11T14:08:04;19.10;;;6.80;;
76723;SDS011;65650;53.126;17.950;2022-12-11T14:10:31;18.10;;;7.10;;
76723;SDS011;65650;53.126;17.950;2022-12-11T14:15:25;20.70;;;8.20;;
76723;SDS011;65650;53.126;17.950;2022-12-11T14:17:52;17.20;;;7.50;;
76723;SDS011;65650;53.126;17.950;2022-12-11T14:20:24;22.30;;;8.30;;
76723;SDS011;65650;53.126;17.950;2022-12-11T14:22:50;13.20;;;5.30;;
76723;SDS011;65650;53.126;17.950;2022-12-11T14:25:24;14.60;;;5.50;;
76723;SDS011;65650;53.126;17.950;2022-12-11T14:27:53;13.50;;;5.10;;
76723;SDS011;65650;53.126;17.950;2022-12-11T14:30:26;15.50;;;5.70;;
76723;SDS011;65650;53.126;17.950;2022-12-11T14:32:57;17.40;;;6.70;;
76723;SDS011;65650;53.126;17.950;2022-12-11T14:35:26;16.30;;;6.50;;
76723;SDS011;65650;53.126;17.950;2022-12-11T14:37:53;14.70;;;6.00;;
76723;SDS011;65650;53.126;17.950;2022-12-11T14:40:22;16.00;;;6.10;;
76723;SDS011;65650;53.126;17.950;2022-12-11T14:42:51;18.00;;;6.60;;
76723;SDS011;65650;53.126;17.950;2022-12-11T14:45:21;20.10;;;7.00;;
76723;SDS011;65650;53.126;17.950;2022-12-11T14:47:49;22.60;;;8.10;;
76723;SDS011;65650;53.126;17.950;2022-12-11T14:53:01;29.90;;;11.10;;
76723;SDS011;65650;53.126;17.950;2022-12-11T14:55:29;26.20;;;9.70;;
76723;SDS011;65650;53.126;17.950;2022-12-11T14:57:56;23.10;;;8.70;;
76723;SDS011;65650;53.126;17.950;2022-12-11T15:00:31;22.50;;;9.20;;
76723;SDS011;65650;53.126;17.950;2022-12-11T15:02:59;20.70;;;8.70;;
76723;SDS011;65650;53.126;17.950;2022-12-11T15:05:26;16.20;;;7.30;;
76723;SDS011;65650;53.126;17.950;2022-12-11T15:08:02;17.80;;;6.70;;
76723;SDS011;65650;53.126;17.950;2022-12-11T15:10:30;17.00;;;6.90;;
76723;SDS011;65650;53.126;17.950;2022-12-11T15:13:02;15.80;;;6.90;;
76723;SDS011;65650;53.126;17.950;2022-12-11T15:15:30;18.10;;;7.70;;
76723;SDS011;65650;53.126;17.950;2022-12-11T15:17:58;20.30;;;8.70;;
76723;SDS011;65650;53.126;17.950;2022-12-11T15:20:27;22.80;;;9.50;;
76723;SDS011;65650;53.126;17.950;2022-12-11T15:22:56;26.60;;;10.70;;
76723;SDS011;65650;53.126;17.950;2022-12-11T15:25:26;26.40;;;10.90;;
76723;SDS011;65650;53.126;17.950;2022-12-11T15:27:54;28.10;;;11.70;;
76723;SDS011;65650;53.126;17.950;2022-12-11T15:33:14;23.90;;;9.50;;
76723;SDS011;65650;53.126;17.950;2022-12-11T15:35:51;19.90;;;8.40;;
76723;SDS011;65650;53.126;17.950;2022-12-11T15:38:31;26.20;;;9.60;;
76723;SDS011;65650;53.126;17.950;2022-12-11T15:40:58;27.80;;;9.60;;
76723;SDS011;65650;53.126;17.950;2022-12-11T15:43:25;26.40;;;10.70;;
76723;SDS011;65650;53.126;17.950;2022-12-11T15:45:52;28.70;;;11.10;;
76723;SDS011;65650;53.126;17.950;2022-12-11T15:48:18;22.00;;;9.60;;
76723;SDS011;65650;53.126;17.950;2022-12-11T15:50:45;28.00;;;10.60;;
76723;SDS011;65650;53.126;17.950;2022-12-11T15:53:11;37.00;;;13.60;;
76723;SDS011;65650;53.126;17.950;2022-12-11T15:55:38;47.00;;;16.80;;
76723;SDS011;65650;53.126;17.950;2022-12-11T15:58:06;33.40;;;12.30;;
76723;SDS011;65650;53.126;17.950;2022-12-11T16:00:33;24.80;;;9.50;;
76723;SDS011;65650;53.126;17.950;2022-12-11T16:03:00;27.40;;;10.80;;
76723;SDS011;65650;53.126;17.950;2022-12-11T16:05:27;34.50;;;13.50;;
76723;SDS011;65650;53.126;17.950;2022-12-11T16:07:53;36.10;;;13.90;;
76723;SDS011;65650;53.126;17.950;2022-12-11T16:10:24;37.30;;;12.10;;
76723;SDS011;65650;53.126;17.950;2022-12-11T16:12:51;29.50;;;10.50;;